Time;durP1;ratioP1;P1;durP2;ratioP2;P2;SDS_P1;SDS_P2;PMS_P1;PMS_P2;Temp;Humidity;BMP_temperature;BMP_pressure;BME280_temperature;BME280_humidity;BME280_pressure;Samples;Min_cycle;Max_cycle;Signal;HPM_P1;HPM_P2
2021/01/19 00:02:13;;;;;;;20.63;9.00;;;6.90;99.90;;;;;;4970180;28;20208;-84
2021/01/19 00:04:39;;;;;;;22.37;8.70;;;6.90;99.90;;;;;;4968472;28;20299;-82
2021/01/19 00:07:06;;;;;;;22.00;8.43;;;6.90;99.90;;;;;;4969365;28;20201;-87
2021/01/19 00:09:32;;;;;;;32.60;7.93;;;6.80;99.90;;;;;;4968660;28;20229;-84
2021/01/19 00:12:00;;;;;;;23.50;7.53;;;6.80;99.90;;;;;;4966463;28;20227;-82
2021/01/19 00:14:26;;;;;;;24.53;7.17;;;6.80;99.90;;;;;;4965089;28;20201;-83
2021/01/19 00:16:52;;;;;;;20.77;6.93;;;6.80;99.90;;;;;;4965598;28;20211;-82
2021/01/19 00:19:18;;;;;;;20.77;7.63;;;6.90;99.90;;;;;;4966229;28;20201;-80
2021/01/19 00:21:45;;;;;;;22.27;6.30;;;6.80;99.90;;;;;;4967849;28;20208;-80
2021/01/19 00:24:11;;;;;;;24.23;6.20;;;6.80;99.90;;;;;;4967246;28;20247;-80
2021/01/19 00:26:39;;;;;;;25.33;5.30;;;6.80;99.90;;;;;;4968064;28;20205;-80
2021/01/19 00:29:06;;;;;;;23.33;6.33;;;6.80;99.90;;;;;;4967176;28;20232;-82
2021/01/19 00:31:32;;;;;;;23.40;6.67;;;6.80;99.90;;;;;;4967392;28;20241;-82
2021/01/19 00:33:58;;;;;;;19.53;6.43;;;6.80;99.90;;;;;;4967652;28;20205;-81
2021/01/19 00:36:25;;;;;;;22.17;6.40;;;6.80;99.90;;;;;;4967908;28;20200;-80
2021/01/19 00:38:51;;;;;;;21.37;5.10;;;6.80;99.90;;;;;;4967523;28;20251;-80
2021/01/19 00:41:17;;;;;;;22.60;5.77;;;6.80;99.90;;;;;;4968474;28;20217;-79
2021/01/19 00:43:43;;;;;;;17.37;5.00;;;6.80;99.90;;;;;;4965681;28;20208;-82
2021/01/19 00:46:11;;;;;;;18.93;5.17;;;6.80;99.90;;;;;;4966654;28;20232;-82
2021/01/19 00:48:37;;;;;;;21.10;5.17;;;6.90;99.90;;;;;;4967387;28;20684;-82
2021/01/19 00:51:03;;;;;;;21.90;5.43;;;6.90;99.90;;;;;;4966268;28;20281;-81
2021/01/19 00:53:29;;;;;;;25.63;6.43;;;6.90;99.90;;;;;;4966303;28;20209;-79
2021/01/19 00:55:56;;;;;;;19.83;5.80;;;6.90;99.90;;;;;;4966485;28;20601;-79
2021/01/19 00:58:22;;;;;;;17.13;5.30;;;6.90;99.90;;;;;;4967772;28;20201;-85
2021/01/19 01:00:48;;;;;;;14.67;4.13;;;7.00;99.90;;;;;;4967445;28;20223;-80
2021/01/19 01:03:16;;;;;;;17.07;5.37;;;6.90;99.90;;;;;;4966911;28;20199;-83
2021/01/19 01:05:42;;;;;;;17.43;5.10;;;7.00;99.90;;;;;;4966828;28;20616;-82
2021/01/19 01:08:08;;;;;;;18.33;5.37;;;6.90;99.90;;;;;;4965298;28;20205;-81
2021/01/19 01:10:35;;;;;;;17.60;4.67;;;6.90;99.90;;;;;;4964199;28;20232;-81
2021/01/19 01:13:01;;;;;;;15.30;4.67;;;6.90;99.90;;;;;;4967918;28;20204;-82
2021/01/19 01:15:32;;;;;;;13.10;4.50;;;6.90;99.90;;;;;;4984913;28;20207;-82
2021/01/19 01:17:58;;;;;;;15.97;5.00;;;6.90;99.90;;;;;;4986075;28;20207;-88
2021/01/19 01:20:25;;;;;;;11.80;4.00;;;6.80;99.90;;;;;;4985480;28;20204;-86
2021/01/19 01:22:53;;;;;;;9.37;4.27;;;6.90;99.90;;;;;;4985037;28;20345;-81
2021/01/19 01:25:20;;;;;;;18.10;4.93;;;6.80;99.90;;;;;;4986663;28;20239;-85
2021/01/19 01:27:47;;;;;;;13.60;4.57;;;6.80;99.90;;;;;;4989908;28;20270;-91
2021/01/19 01:30:16;;;;;;;14.93;4.97;;;6.80;99.90;;;;;;4990322;28;20234;-89
2021/01/19 01:32:43;;;;;;;12.37;4.23;;;6.80;99.90;;;;;;4990046;28;20207;-90
2021/01/19 01:35:11;;;;;;;15.90;5.17;;;6.70;99.90;;;;;;4988059;28;20287;-87
2021/01/19 01:37:44;;;;;;;11.70;4.23;;;6.70;99.90;;;;;;4987255;28;20243;-86
2021/01/19 01:40:13;;;;;;;14.93;4.30;;;6.60;99.90;;;;;;4985375;28;20197;-79
2021/01/19 01:42:40;;;;;;;14.23;4.90;;;6.70;99.90;;;;;;4985828;28;20226;-82
2021/01/19 01:45:07;;;;;;;11.77;4.80;;;6.70;99.90;;;;;;4986626;28;20727;-82
2021/01/19 01:47:34;;;;;;;15.77;4.17;;;6.60;99.90;;;;;;4986911;28;20235;-83
2021/01/19 01:50:00;;;;;;;10.80;4.47;;;6.60;99.90;;;;;;4991187;28;20242;-84
2021/01/19 01:52:29;;;;;;;17.63;5.63;;;6.60;99.90;;;;;;4993434;28;20227;-86
2021/01/19 01:54:57;;;;;;;12.87;5.33;;;6.50;99.90;;;;;;4993507;28;20212;-86
2021/01/19 01:57:24;;;;;;;13.53;5.33;;;6.50;99.90;;;;;;4992816;28;20207;-83
2021/01/19 01:59:54;;;;;;;13.70;4.93;;;6.50;99.90;;;;;;4992036;28;20204;-82
2021/01/19 02:02:20;;;;;;;8.67;4.60;;;6.50;99.90;;;;;;4993996;28;20204;-85
2021/01/19 02:04:46;;;;;;;9.80;4.10;;;6.50;99.90;;;;;;4993071;28;20955;-87
2021/01/19 02:07:22;;;;;;;14.70;5.33;;;6.50;99.90;;;;;;4993073;28;20585;-86
2021/01/19 02:09:58;;;;;;;11.17;4.80;;;6.50;99.90;;;;;;4993365;28;20674;-87
2021/01/19 02:12:32;;;;;;;9.97;4.47;;;6.50;99.90;;;;;;4993424;28;20288;-85
2021/01/19 02:15:02;;;;;;;10.47;4.80;;;6.50;99.90;;;;;;4992731;28;20219;-81
2021/01/19 02:17:44;;;;;;;11.50;4.60;;;6.40;99.90;;;;;;4994406;28;20615;-86
2021/01/19 02:20:46;;;;;;;12.60;5.20;;;6.40;99.90;;;;;;4993639;28;20195;-88
2021/01/19 02:23:20;;;;;;;12.60;5.80;;;6.40;99.90;;;;;;4993011;28;20341;-88
2021/01/19 02:26:19;;;;;;;15.03;5.73;;;6.50;99.90;;;;;;4993675;28;20197;-89
2021/01/19 02:28:51;;;;;;;13.23;6.27;;;6.40;99.90;;;;;;4993285;28;20505;-88
2021/01/19 02:31:49;;;;;;;15.67;6.17;;;6.40;99.90;;;;;;4992948;28;20192;-87
2021/01/19 02:34:23;;;;;;;14.90;7.67;;;6.40;99.90;;;;;;4993738;28;20203;-89
2021/01/19 02:36:58;;;;;;;12.23;6.30;;;6.40;99.90;;;;;;4992763;28;20635;-89
2021/01/19 02:39:34;;;;;;;11.07;7.33;;;6.40;99.90;;;;;;4992527;28;20187;-86
2021/01/19 02:42:05;;;;;;;10.57;7.17;;;6.40;99.90;;;;;;4992069;28;20192;-90
2021/01/19 02:44:35;;;;;;;14.73;7.90;;;6.40;99.90;;;;;;4992230;28;20534;-88
2021/01/19 02:47:04;;;;;;;15.50;7.70;;;6.50;99.90;;;;;;4991850;28;20244;-79
2021/01/19 02:49:31;;;;;;;9.97;8.07;;;6.40;99.90;;;;;;4991464;28;20230;-86
2021/01/19 02:51:59;;;;;;;12.60;8.13;;;6.50;99.90;;;;;;4991900;28;20208;-88
2021/01/19 02:54:27;;;;;;;11.53;6.90;;;6.50;99.90;;;;;;4991902;28;20608;-88
2021/01/19 02:57:04;;;;;;;10.33;7.10;;;6.50;99.90;;;;;;4991764;28;20251;-86
2021/01/19 02:59:38;;;;;;;10.57;7.13;;;6.50;99.90;;;;;;4992083;28;20198;-85
2021/01/19 03:02:11;;;;;;;10.63;7.40;;;6.40;99.90;;;;;;4992760;28;20746;-89
2021/01/19 03:04:38;;;;;;;10.30;7.37;;;6.50;99.90;;;;;;4991937;28;20197;-89
2021/01/19 03:07:08;;;;;;;11.13;7.07;;;6.50;99.90;;;;;;4991818;28;20694;-89
2021/01/19 03:09:37;;;;;;;7.73;6.53;;;6.50;99.90;;;;;;4991814;28;20219;-86
2021/01/19 03:12:06;;;;;;;8.67;6.73;;;6.50;99.90;;;;;;4991513;28;20207;-83
2021/01/19 03:14:35;;;;;;;10.43;6.63;;;6.50;99.90;;;;;;4975448;28;20883;-83
2021/01/19 03:17:07;;;;;;;11.63;6.87;;;6.50;99.90;;;;;;4971916;28;20223;-87
2021/01/19 03:19:35;;;;;;;12.17;7.50;;;6.50;99.90;;;;;;4972193;28;20200;-85
2021/01/19 03:22:02;;;;;;;12.27;6.83;;;6.50;99.90;;;;;;4972158;28;20197;-86
2021/01/19 03:24:28;;;;;;;12.00;6.83;;;6.50;99.90;;;;;;4971719;28;20259;-87
2021/01/19 03:26:55;;;;;;;9.60;6.83;;;6.50;99.90;;;;;;4971630;28;20248;-85
2021/01/19 03:29:21;;;;;;;10.93;7.73;;;6.50;99.90;;;;;;4972386;28;20231;-84
2021/01/19 03:31:49;;;;;;;14.07;7.53;;;6.50;99.90;;;;;;4972010;28;20248;-87
2021/01/19 03:34:17;;;;;;;11.93;7.37;;;6.50;99.90;;;;;;4972105;28;20590;-86
2021/01/19 03:36:43;;;;;;;15.70;7.90;;;6.40;99.90;;;;;;4969996;28;20437;-82
2021/01/19 03:39:09;;;;;;;13.67;8.57;;;6.50;99.90;;;;;;4970290;28;20215;-83
2021/01/19 03:41:36;;;;;;;12.00;8.23;;;6.40;99.90;;;;;;4971128;28;20201;-84
2021/01/19 03:44:03;;;;;;;11.67;9.23;;;6.50;99.90;;;;;;4970575;28;20193;-83
2021/01/19 03:46:30;;;;;;;12.10;9.17;;;6.50;99.90;;;;;;4970300;28;20230;-82
2021/01/19 03:48:57;;;;;;;16.37;9.17;;;6.50;99.90;;;;;;4971083;28;20200;-85
2021/01/19 03:51:24;;;;;;;12.87;8.80;;;6.50;99.90;;;;;;4970137;28;20209;-86
2021/01/19 03:53:50;;;;;;;12.23;8.57;;;6.50;99.90;;;;;;4970125;28;20204;-83
2021/01/19 03:56:17;;;;;;;11.50;9.37;;;6.50;99.90;;;;;;4970111;28;20590;-86
2021/01/19 03:58:43;;;;;;;13.67;8.90;;;6.50;99.90;;;;;;4971117;28;20213;-82
2021/01/19 04:01:10;;;;;;;12.93;10.07;;;6.50;99.90;;;;;;4968807;28;20196;-82
2021/01/19 04:03:36;;;;;;;13.27;9.97;;;6.50;99.90;;;;;;4970223;28;20766;-83
2021/01/19 04:06:06;;;;;;;12.93;9.67;;;6.60;99.90;;;;;;4969562;28;20209;-84
2021/01/19 04:08:33;;;;;;;10.93;9.07;;;6.60;99.90;;;;;;4970362;28;20317;-85
2021/01/19 04:11:00;;;;;;;12.30;8.60;;;6.50;99.90;;;;;;4969690;28;20702;-80
2021/01/19 04:13:26;;;;;;;12.37;9.37;;;6.60;99.90;;;;;;4970366;28;20209;-83
2021/01/19 04:15:53;;;;;;;12.10;8.43;;;6.60;99.90;;;;;;4970454;28;20601;-87
2021/01/19 04:18:19;;;;;;;11.50;8.23;;;6.60;99.90;;;;;;4970798;28;20205;-84
2021/01/19 04:20:46;;;;;;;14.50;9.00;;;6.60;99.90;;;;;;4970757;28;20201;-88
2021/01/19 04:23:14;;;;;;;11.27;8.43;;;6.60;99.90;;;;;;4970495;28;20200;-85
2021/01/19 04:25:41;;;;;;;10.77;8.40;;;6.60;99.90;;;;;;4970828;28;20225;-87
2021/01/19 04:28:08;;;;;;;10.70;7.60;;;6.60;99.90;;;;;;4970635;28;20213;-87
2021/01/19 04:30:34;;;;;;;12.33;8.07;;;6.60;99.90;;;;;;4970791;28;20363;-86
2021/01/19 04:33:00;;;;;;;9.37;8.00;;;6.60;99.90;;;;;;4970972;28;20618;-83
2021/01/19 04:35:27;;;;;;;8.70;7.80;;;6.60;99.90;;;;;;4970928;28;20205;-84
2021/01/19 04:37:53;;;;;;;9.63;7.37;;;6.60;99.90;;;;;;4970940;28;20311;-80
2021/01/19 04:40:19;;;;;;;9.87;7.80;;;6.70;99.90;;;;;;4971084;28;20216;-87
2021/01/19 04:42:47;;;;;;;10.57;7.87;;;6.70;99.90;;;;;;4969573;28;20660;-89
2021/01/19 04:45:14;;;;;;;11.83;8.37;;;6.70;99.90;;;;;;4970259;28;20252;-86
2021/01/19 04:47:40;;;;;;;12.27;8.23;;;6.70;99.90;;;;;;4970537;28;20212;-88
2021/01/19 04:50:08;;;;;;;11.17;7.70;;;6.70;99.90;;;;;;4971303;28;20213;-88
2021/01/19 04:52:35;;;;;;;11.00;7.90;;;6.70;99.90;;;;;;4971211;28;20205;-90
2021/01/19 04:55:07;;;;;;;10.40;7.90;;;6.70;99.90;;;;;;4970270;28;20196;-84
2021/01/19 04:57:35;;;;;;;12.27;7.20;;;6.80;99.90;;;;;;4969861;28;20295;-85
2021/01/19 05:00:07;;;;;;;8.97;7.50;;;6.80;99.90;;;;;;4970488;28;20256;-88
2021/01/19 05:03:12;;;;;;;11.90;7.73;;;6.80;99.90;;;;;;4969390;28;20605;-90
2021/01/19 05:06:20;;;;;;;14.50;8.77;;;6.90;99.90;;;;;;4970516;28;20589;-83
2021/01/19 05:08:57;;;;;;;12.67;8.33;;;6.90;99.90;;;;;;4969324;28;20267;-89
2021/01/19 05:11:26;;;;;;;12.30;7.67;;;6.90;99.90;;;;;;4970094;28;20255;-84
2021/01/19 05:13:54;;;;;;;12.10;8.50;;;6.90;99.90;;;;;;4970863;28;20205;-87
2021/01/19 05:16:24;;;;;;;10.93;7.80;;;6.90;99.90;;;;;;4971493;28;20656;-88
2021/01/19 05:18:51;;;;;;;12.43;7.73;;;6.90;99.90;;;;;;4970952;28;20208;-88
2021/01/19 05:21:18;;;;;;;11.53;7.80;;;6.90;99.90;;;;;;4971470;28;20623;-87
2021/01/19 05:23:45;;;;;;;15.17;8.30;;;7.00;99.90;;;;;;4973320;28;20298;-88
2021/01/19 05:26:14;;;;;;;15.67;8.03;;;7.00;99.90;;;;;;4975252;28;20290;-88
2021/01/19 05:28:42;;;;;;;11.50;7.57;;;7.00;99.90;;;;;;4974663;28;20211;-88
2021/01/19 05:31:26;;;;;;;13.87;7.30;;;7.00;99.90;;;;;;4975182;28;20229;-89
2021/01/19 05:34:07;;;;;;;14.07;7.57;;;7.10;99.90;;;;;;4974687;28;20578;-85
2021/01/19 05:36:39;;;;;;;12.67;7.67;;;7.10;99.90;;;;;;4973737;28;20193;-87
2021/01/19 05:39:07;;;;;;;14.27;7.87;;;7.10;99.90;;;;;;4974289;28;20262;-88
2021/01/19 05:41:37;;;;;;;15.90;8.70;;;7.10;99.90;;;;;;4974322;28;20197;-86
2021/01/19 05:44:11;;;;;;;13.07;8.03;;;7.20;99.90;;;;;;4973543;28;20208;-83
2021/01/19 05:46:52;;;;;;;15.63;8.63;;;7.20;99.90;;;;;;4970311;28;20248;-88
2021/01/19 05:49:23;;;;;;;11.33;6.90;;;7.10;99.90;;;;;;4971335;28;20827;-86
2021/01/19 05:51:55;;;;;;;12.90;6.87;;;7.20;99.90;;;;;;4970356;28;20259;-88
2021/01/19 05:54:24;;;;;;;11.07;7.60;;;7.20;99.90;;;;;;4971987;28;20205;-87
2021/01/19 05:56:50;;;;;;;14.47;7.73;;;7.20;99.90;;;;;;4974597;28;20189;-88
2021/01/19 05:59:28;;;;;;;16.30;7.17;;;7.20;99.90;;;;;;4973758;28;20220;-86
2021/01/19 06:02:01;;;;;;;15.03;7.07;;;7.20;99.90;;;;;;4974379;28;20239;-88
2021/01/19 06:04:45;;;;;;;13.77;6.73;;;7.20;99.90;;;;;;4973292;28;20205;-86
2021/01/19 06:07:13;;;;;;;17.97;7.40;;;7.20;99.90;;;;;;4969002;28;20942;-82
2021/01/19 06:09:40;;;;;;;11.60;6.10;;;7.20;99.90;;;;;;4970458;28;20885;-88
2021/01/19 06:12:07;;;;;;;9.73;5.30;;;7.30;99.90;;;;;;4974645;28;20204;-86
2021/01/19 06:14:34;;;;;;;13.03;6.07;;;7.30;99.90;;;;;;4989159;28;20239;-87
2021/01/19 06:17:09;;;;;;;16.83;6.40;;;7.30;99.90;;;;;;4994742;28;20200;-84
2021/01/19 06:19:36;;;;;;;12.53;5.57;;;7.30;99.90;;;;;;4993322;28;20203;-89
2021/01/19 06:22:08;;;;;;;8.60;5.23;;;7.30;99.90;;;;;;4993811;28;20262;-87
2021/01/19 06:24:36;;;;;;;15.77;6.97;;;7.30;99.90;;;;;;4994221;28;20307;-89
2021/01/19 06:27:03;;;;;;;10.63;4.53;;;7.30;99.90;;;;;;4992533;28;20199;-89
2021/01/19 06:29:31;;;;;;;12.27;5.37;;;7.30;99.90;;;;;;4992742;28;20208;-88
2021/01/19 06:31:58;;;;;;;11.80;5.13;;;7.40;99.90;;;;;;4991587;28;20204;-90
2021/01/19 06:34:31;;;;;;;13.07;5.40;;;7.40;99.90;;;;;;4992428;28;20262;-89
2021/01/19 06:36:58;;;;;;;12.40;4.83;;;7.40;99.90;;;;;;4993152;28;20207;-88
2021/01/19 06:39:33;;;;;;;16.23;5.47;;;7.40;99.90;;;;;;4993336;28;20513;-90
2021/01/19 06:42:05;;;;;;;13.77;4.40;;;7.40;99.90;;;;;;4992769;28;20232;-88
2021/01/19 06:44:38;;;;;;;11.60;4.87;;;7.40;99.90;;;;;;4993589;28;20195;-89
2021/01/19 06:47:05;;;;;;;12.00;4.30;;;7.40;99.90;;;;;;4993302;28;20986;-86
2021/01/19 06:49:37;;;;;;;10.60;3.80;;;7.40;99.90;;;;;;4993346;28;20207;-89
2021/01/19 06:52:09;;;;;;;18.37;4.40;;;7.40;99.90;;;;;;4993103;28;20600;-88
2021/01/19 06:54:56;;;;;;;12.40;3.90;;;7.50;99.90;;;;;;4993222;28;20204;-89
2021/01/19 06:57:31;;;;;;;14.93;3.70;;;7.50;99.90;;;;;;4984278;28;20207;-89
2021/01/19 07:00:09;;;;;;;10.93;3.30;;;7.60;99.90;;;;;;4993403;28;20202;-88
2021/01/19 07:02:37;;;;;;;24.50;4.37;;;7.60;99.90;;;;;;4992587;28;20739;-90
2021/01/19 07:05:12;;;;;;;29.33;5.97;;;7.60;99.90;;;;;;4992788;28;20211;-90
2021/01/19 07:07:42;;;;;;;23.70;4.50;;;7.60;99.90;;;;;;4993025;28;20200;-85
2021/01/19 07:10:11;;;;;;;20.10;4.73;;;7.70;99.90;;;;;;4991634;28;20262;-88
2021/01/19 07:12:59;;;;;;;17.87;4.87;;;7.70;99.90;;;;;;4992146;28;20204;-88
2021/01/19 07:16:11;;;;;;;19.67;4.87;;;7.70;99.90;;;;;;4972385;28;20296;-87
2021/01/19 07:19:03;;;;;;;15.43;4.80;;;7.70;99.90;;;;;;4972273;28;20547;-90
2021/01/19 07:22:04;;;;;;;20.73;4.37;;;7.70;99.90;;;;;;4971850;28;20236;-85
2021/01/19 07:24:37;;;;;;;16.43;4.63;;;7.70;99.90;;;;;;4966834;28;20866;-86
2021/01/19 07:27:05;;;;;;;28.50;6.23;;;7.70;99.90;;;;;;4972684;28;20340;-87
2021/01/19 07:29:32;;;;;;;26.43;4.77;;;7.70;99.90;;;;;;4972646;28;20287;-88
2021/01/19 07:32:05;;;;;;;18.33;5.37;;;7.80;99.90;;;;;;4971327;28;20216;-85
2021/01/19 07:34:31;;;;;;;27.50;5.63;;;7.80;99.90;;;;;;4970899;28;20208;-90
2021/01/19 07:36:58;;;;;;;25.67;6.20;;;7.80;99.90;;;;;;4970023;28;20410;-88
2021/01/19 07:39:31;;;;;;;19.13;5.33;;;7.80;99.90;;;;;;4967578;28;20193;-88
2021/01/19 07:42:09;;;;;;;26.00;5.10;;;7.80;99.90;;;;;;4967649;28;20193;-90
2021/01/19 07:44:36;;;;;;;29.60;6.70;;;7.80;99.90;;;;;;4969711;28;20592;-84
2021/01/19 07:47:08;;;;;;;25.67;6.97;;;7.80;99.90;;;;;;4970297;28;20233;-86
2021/01/19 07:49:35;;;;;;;29.83;6.00;;;7.80;99.90;;;;;;4969027;28;20193;-87
2021/01/19 07:52:13;;;;;;;26.47;8.17;;;7.90;99.90;;;;;;4969031;28;20209;-87
2021/01/19 07:54:41;;;;;;;26.83;6.93;;;7.90;99.90;;;;;;4967645;28;20572;-88
2021/01/19 07:57:13;;;;;;;29.97;6.67;;;8.00;99.90;;;;;;4967295;28;20223;-87
2021/01/19 07:59:41;;;;;;;34.93;7.67;;;8.00;99.90;;;;;;4971145;28;20631;-88
2021/01/19 08:02:07;;;;;;;29.63;6.93;;;8.00;99.90;;;;;;4969846;28;20209;-85
2021/01/19 08:04:35;;;;;;;25.40;5.60;;;8.00;99.90;;;;;;4970825;28;20230;-88
2021/01/19 08:07:13;;;;;;;25.23;6.23;;;8.10;99.90;;;;;;4971172;28;20208;-85
2021/01/19 08:09:40;;;;;;;33.23;7.23;;;8.10;99.90;;;;;;4970594;28;20196;-88
2021/01/19 08:12:09;;;;;;;30.07;7.80;;;8.10;99.90;;;;;;4970951;28;20296;-85
2021/01/19 08:14:39;;;;;;;32.93;8.77;;;8.10;99.90;;;;;;4971675;28;20215;-86
2021/01/19 08:17:12;;;;;;;29.80;6.87;;;8.10;99.90;;;;;;4970736;28;20211;-88
2021/01/19 08:19:41;;;;;;;25.57;6.63;;;8.10;99.90;;;;;;4971798;28;20189;-89
2021/01/19 08:22:07;;;;;;;21.07;5.47;;;8.20;99.90;;;;;;4971848;28;20212;-86
2021/01/19 08:24:34;;;;;;;25.47;5.60;;;8.30;99.90;;;;;;4971572;28;20224;-82
2021/01/19 08:27:02;;;;;;;33.07;8.90;;;8.30;99.90;;;;;;4970438;28;20231;-89
2021/01/19 08:29:29;;;;;;;41.97;9.00;;;8.40;99.90;;;;;;4970354;28;20217;-85
2021/01/19 08:49:17;;;;;;;60.20;11.13;;;8.70;99.90;;;;;;4851279;29;20246;-86
2021/01/19 08:51:47;;;;;;;66.80;13.07;;;8.80;99.90;;;;;;4893031;28;20706;-86
2021/01/19 08:54:13;;;;;;;68.07;13.77;;;8.90;99.90;;;;;;4971481;28;20199;-86
2021/01/19 08:56:41;;;;;;;51.43;10.97;;;8.90;99.90;;;;;;4971785;28;20200;-86
2021/01/19 08:59:08;;;;;;;46.73;10.67;;;9.00;99.90;;;;;;4971725;28;20205;-85
2021/01/19 09:01:34;;;;;;;50.60;10.13;;;9.10;99.90;;;;;;4971073;28;20251;-86
2021/01/19 09:04:03;;;;;;;38.87;9.83;;;9.20;99.90;;;;;;4971124;28;20567;-83
2021/01/19 09:06:31;;;;;;;38.10;8.77;;;9.30;99.90;;;;;;4970772;28;20213;-85
2021/01/19 09:08:59;;;;;;;41.83;9.60;;;9.50;99.90;;;;;;4971056;28;20287;-86
2021/01/19 09:11:30;;;;;;;44.73;11.77;;;9.50;99.90;;;;;;4971018;28;20228;-87
2021/01/19 09:14:03;;;;;;;37.83;11.37;;;9.60;99.90;;;;;;4972024;28;20369;-86
2021/01/19 09:16:31;;;;;;;38.40;9.13;;;9.60;99.90;;;;;;4970817;28;20239;-84
2021/01/19 09:18:59;;;;;;;36.47;7.97;;;9.70;99.90;;;;;;4969140;28;20583;-85
2021/01/19 09:21:26;;;;;;;43.97;8.90;;;9.70;99.90;;;;;;4965600;28;20205;-86
2021/01/19 09:23:54;;;;;;;35.13;7.80;;;9.70;99.90;;;;;;4965195;28;20742;-83
2021/01/19 09:26:20;;;;;;;44.10;7.97;;;9.70;99.90;;;;;;4949819;28;20373;-86
2021/01/19 09:28:47;;;;;;;37.23;6.57;;;9.70;99.90;;;;;;4968342;28;20200;-83
2021/01/19 09:31:16;;;;;;;40.67;9.00;;;9.70;99.90;;;;;;4968589;28;20227;-83
2021/01/19 09:33:44;;;;;;;45.60;9.17;;;9.70;99.90;;;;;;4968791;28;20541;-85
2021/01/19 09:36:11;;;;;;;46.03;8.27;;;9.70;99.90;;;;;;4970644;28;20208;-84
2021/01/19 09:38:39;;;;;;;29.67;7.37;;;9.70;99.90;;;;;;4970999;28;20209;-86
2021/01/19 09:41:07;;;;;;;41.57;7.83;;;9.80;99.90;;;;;;4968938;28;20208;-84
2021/01/19 09:43:35;;;;;;;40.77;7.87;;;9.80;99.90;;;;;;4969676;28;20216;-82
2021/01/19 09:46:03;;;;;;;35.73;7.63;;;9.80;99.90;;;;;;4970524;28;20196;-80
2021/01/19 09:48:32;;;;;;;38.87;7.23;;;9.80;99.90;;;;;;4970748;28;20592;-83
2021/01/19 09:51:00;;;;;;;38.37;7.47;;;9.80;99.90;;;;;;4971585;28;20229;-84
2021/01/19 09:53:29;;;;;;;43.40;8.17;;;9.70;99.90;;;;;;4970615;28;20208;-85
2021/01/19 09:55:56;;;;;;;33.40;7.70;;;9.80;99.90;;;;;;4969230;28;20236;-84
2021/01/19 09:58:25;;;;;;;38.30;7.60;;;9.70;99.90;;;;;;4966052;28;20271;-84
2021/01/19 10:00:52;;;;;;;33.23;9.03;;;9.80;99.90;;;;;;4965856;28;20276;-84
2021/01/19 10:03:21;;;;;;;34.70;6.30;;;9.80;99.90;;;;;;4966427;28;20664;-85
2021/01/19 10:06:03;;;;;;;27.83;7.40;;;9.80;99.90;;;;;;4969264;28;20200;-83
2021/01/19 10:08:30;;;;;;;36.23;6.90;;;9.90;99.90;;;;;;4970699;28;20208;-86
2021/01/19 10:10:57;;;;;;;28.90;7.47;;;9.90;99.90;;;;;;4975014;28;20527;-85
2021/01/19 10:13:26;;;;;;;46.10;7.73;;;9.90;99.90;;;;;;4984639;28;20205;-85
2021/01/19 10:16:03;;;;;;;44.13;7.57;;;9.80;99.90;;;;;;4980981;28;20661;-83
2021/01/19 10:18:31;;;;;;;32.33;7.17;;;9.80;99.90;;;;;;4971539;28;20204;-84
2021/01/19 10:20:57;;;;;;;27.10;5.93;;;9.80;99.90;;;;;;4969064;28;20205;-87
2021/01/19 10:23:26;;;;;;;37.63;6.47;;;9.90;99.90;;;;;;4969458;28;20212;-87
2021/01/19 10:25:55;;;;;;;31.63;6.80;;;9.80;99.90;;;;;;4969760;28;20240;-86
2021/01/19 10:28:26;;;;;;;35.77;6.63;;;9.80;99.90;;;;;;4967512;28;20664;-83
2021/01/19 10:30:52;;;;;;;44.67;6.03;;;9.80;99.90;;;;;;4968302;28;20287;-85
2021/01/19 10:33:26;;;;;;;24.43;5.30;;;9.80;99.90;;;;;;4972542;28;20768;-83
2021/01/19 10:35:52;;;;;;;16.63;4.33;;;9.70;99.90;;;;;;4972141;28;20197;-83
2021/01/19 10:38:26;;;;;;;21.83;4.77;;;9.70;99.90;;;;;;4971611;28;20212;-84
2021/01/19 10:40:52;;;;;;;18.53;4.60;;;9.70;99.90;;;;;;4968409;28;20570;-87
2021/01/19 10:43:19;;;;;;;28.70;5.57;;;9.70;99.90;;;;;;4968622;28;20201;-79
2021/01/19 10:45:46;;;;;;;25.47;4.87;;;9.70;99.90;;;;;;4970224;28;20217;-80
2021/01/19 10:48:19;;;;;;;22.17;4.40;;;9.70;99.90;;;;;;4970317;28;20244;-81
2021/01/19 10:50:46;;;;;;;26.80;6.10;;;9.70;99.90;;;;;;4966100;28;20243;-84
2021/01/19 10:53:12;;;;;;;20.17;4.77;;;9.70;99.90;;;;;;4965279;28;20204;-80
2021/01/19 10:55:39;;;;;;;19.83;4.60;;;9.80;99.90;;;;;;4967008;28;20485;-81
2021/01/19 10:58:06;;;;;;;18.77;4.87;;;9.80;99.90;;;;;;4969500;28;20208;-83
2021/01/19 11:00:34;;;;;;;17.90;5.10;;;9.80;99.90;;;;;;4967859;28;20207;-82
2021/01/19 11:03:02;;;;;;;18.80;4.80;;;9.90;99.90;;;;;;4970280;28;20213;-85
2021/01/19 11:05:29;;;;;;;15.37;3.70;;;9.90;99.90;;;;;;4970049;28;20226;-87
2021/01/19 11:07:56;;;;;;;20.67;3.73;;;9.90;99.90;;;;;;4968929;28;20208;-86
2021/01/19 11:10:24;;;;;;;13.90;3.63;;;9.90;99.90;;;;;;4968767;28;20786;-81
2021/01/19 11:12:52;;;;;;;12.93;3.40;;;9.90;99.90;;;;;;4969331;28;20209;-79
2021/01/19 11:15:18;;;;;;;10.07;3.40;;;9.90;99.90;;;;;;4987325;28;20207;-84
2021/01/19 11:17:48;;;;;;;12.77;3.60;;;10.00;99.90;;;;;;5012147;22;20644;-82
2021/01/19 11:20:16;;;;;;;13.87;3.20;;;10.00;99.90;;;;;;5006133;28;20207;-81
2021/01/19 11:22:44;;;;;;;12.07;3.00;;;10.00;99.90;;;;;;5007867;28;20212;-89
2021/01/19 11:25:12;;;;;;;9.83;3.23;;;10.00;99.90;;;;;;5007046;28;20223;-81
2021/01/19 11:27:38;;;;;;;14.00;3.93;;;10.10;99.90;;;;;;5007760;28;20199;-80
2021/01/19 11:30:06;;;;;;;14.60;4.43;;;10.00;99.90;;;;;;5005417;28;20839;-80
2021/01/19 11:32:32;;;;;;;17.90;9.00;;;10.00;99.90;;;;;;5007010;28;20215;-82
2021/01/19 11:34:59;;;;;;;22.60;11.93;;;10.10;99.90;;;;;;5006304;28;20207;-81
2021/01/19 11:37:26;;;;;;;20.17;11.63;;;10.10;99.90;;;;;;5005481;28;20207;-80
2021/01/19 11:39:53;;;;;;;21.87;12.10;;;10.20;99.90;;;;;;5008103;28;20913;-84
2021/01/19 11:42:19;;;;;;;19.83;9.43;;;10.20;99.90;;;;;;5007619;28;20211;-80
2021/01/19 11:44:46;;;;;;;17.27;7.60;;;10.20;99.90;;;;;;5007169;28;20203;-82
2021/01/19 11:47:12;;;;;;;19.20;7.83;;;10.20;99.90;;;;;;5008024;28;20211;-84
2021/01/19 11:49:39;;;;;;;12.80;6.87;;;10.30;99.90;;;;;;5007990;28;20671;-82
2021/01/19 11:52:05;;;;;;;11.93;6.03;;;10.30;99.90;;;;;;5007102;28;20282;-82
2021/01/19 11:54:32;;;;;;;11.47;5.20;;;10.40;99.90;;;;;;5006203;28;20291;-82
2021/01/19 11:56:58;;;;;;;13.87;4.97;;;10.40;99.90;;;;;;5006771;28;20214;-81
2021/01/19 11:59:26;;;;;;;16.40;5.13;;;10.40;99.90;;;;;;5007599;28;20208;-81
2021/01/19 12:01:54;;;;;;;15.83;6.30;;;10.40;99.90;;;;;;5017331;22;20647;-85
2021/01/19 12:04:20;;;;;;;15.30;7.03;;;10.40;99.90;;;;;;4969396;28;20397;-82
2021/01/19 12:06:47;;;;;;;24.43;10.50;;;10.40;99.90;;;;;;4969240;28;20209;-84
2021/01/19 12:09:13;;;;;;;31.73;17.07;;;10.30;99.90;;;;;;4969744;28;20200;-90
2021/01/19 12:11:42;;;;;;;37.23;16.93;;;10.30;99.90;;;;;;4966713;28;20963;-82
2021/01/19 12:14:08;;;;;;;41.10;15.73;;;10.20;99.90;;;;;;4958745;28;20217;-83
2021/01/19 12:16:34;;;;;;;52.63;20.17;;;10.20;99.90;;;;;;4966153;28;20212;-82
2021/01/19 12:19:01;;;;;;;48.30;19.27;;;10.10;99.90;;;;;;4967095;28;20304;-86
2021/01/19 12:21:28;;;;;;;59.00;18.90;;;10.10;99.90;;;;;;4967806;28;20255;-80
2021/01/19 12:23:54;;;;;;;55.63;15.70;;;10.10;99.90;;;;;;4968521;28;20224;-85
2021/01/19 12:26:20;;;;;;;59.93;14.27;;;10.00;99.90;;;;;;4967162;28;20216;-82
2021/01/19 12:28:47;;;;;;;59.70;13.50;;;10.00;99.90;;;;;;4967299;28;20333;-84
2021/01/19 12:31:14;;;;;;;71.87;14.13;;;10.00;99.90;;;;;;4967456;28;20307;-88
2021/01/19 12:33:41;;;;;;;50.67;15.17;;;10.00;99.90;;;;;;4964780;28;20313;-85
2021/01/19 12:36:08;;;;;;;54.43;12.47;;;9.90;99.90;;;;;;4962692;28;20717;-82
2021/01/19 12:38:34;;;;;;;43.33;11.60;;;9.90;99.90;;;;;;4965360;28;20215;-83
2021/01/19 12:41:00;;;;;;;50.57;12.40;;;9.90;99.90;;;;;;4961718;28;20228;-81
2021/01/19 12:43:28;;;;;;;52.50;11.37;;;9.90;99.90;;;;;;4965602;28;20208;-79
2021/01/19 12:45:55;;;;;;;43.40;9.90;;;9.90;99.90;;;;;;4966156;28;20215;-79
2021/01/19 12:48:21;;;;;;;44.87;9.13;;;9.90;99.90;;;;;;4967401;28;20223;-82
2021/01/19 12:50:48;;;;;;;34.33;8.93;;;10.00;99.90;;;;;;4965531;28;20287;-84
2021/01/19 12:53:14;;;;;;;43.93;8.10;;;10.00;99.90;;;;;;4966017;28;20200;-80
2021/01/19 12:55:40;;;;;;;38.83;8.53;;;10.00;99.90;;;;;;4966129;28;20212;-80
2021/01/19 12:58:07;;;;;;;44.90;8.93;;;10.00;99.90;;;;;;4966617;28;20216;-83
2021/01/19 13:00:34;;;;;;;43.97;8.33;;;10.00;99.90;;;;;;4966495;28;20833;-86
2021/01/19 13:03:01;;;;;;;43.33;8.57;;;10.00;99.90;;;;;;4967671;28;20240;-79
2021/01/19 13:05:27;;;;;;;41.70;8.13;;;10.00;99.90;;;;;;4965952;28;20211;-81
2021/01/19 13:07:53;;;;;;;35.57;7.37;;;10.00;99.90;;;;;;4963501;28;20554;-78
2021/01/19 13:10:20;;;;;;;44.23;7.73;;;10.00;99.90;;;;;;4965689;28;20540;-89
2021/01/19 13:12:46;;;;;;;40.07;8.73;;;9.90;99.90;;;;;;4966526;28;20597;-91
2021/01/19 13:15:13;;;;;;;31.77;7.97;;;9.90;99.90;;;;;;4945628;29;20197;-79